Time;durP1;ratioP1;P1;durP2;ratioP2;P2;SDS_P1;SDS_P2;PMS_P1;PMS_P2;Temp;Humidity;BMP_temperature;BMP_pressure;BME280_temperature;BME280_humidity;BME280_pressure;Samples;Min_cycle;Max_cycle;Signal;HPM_P1;HPM_P2
2021/09/11 00:05:41;;;;;;;1999.90;999.90;;;;;;;20.29;80.54;100953.19;15773696;28;20102;-58
2021/09/11 00:13:15;;;;;;;1999.90;999.90;;;;;;;20.24;80.58;100957.22;15765740;28;20496;-60
2021/09/11 00:20:47;;;;;;;1999.90;999.90;;;;;;;20.19;80.80;100957.56;15755017;28;20044;-60
2021/09/11 00:28:21;;;;;;;1999.90;999.90;;;;;;;20.19;80.88;100958.38;15775472;28;20396;-60
2021/09/11 00:35:53;;;;;;;1999.90;999.90;;;;;;;20.09;81.52;100967.63;15783090;28;20064;-59
2021/09/11 00:43:28;;;;;;;1999.90;999.90;;;;;;;20.21;80.62;100957.19;15755400;28;20036;-60
2021/09/11 00:51:00;;;;;;;1999.90;999.90;;;;;;;20.13;80.73;100968.47;15768759;28;20098;-58
2021/09/11 00:58:34;;;;;;;1999.90;999.90;;;;;;;20.15;81.07;100963.22;15774961;28;20139;-60
2021/09/11 01:06:07;;;;;;;1999.90;999.90;;;;;;;20.07;80.89;100981.38;15753550;28;20032;-59
2021/09/11 01:13:41;;;;;;;1999.90;999.90;;;;;;;20.10;81.14;100980.56;15779921;28;20044;-60
2021/09/11 01:21:14;;;;;;;1999.90;999.90;;;;;;;20.04;81.61;100976.50;15758093;28;20302;-59
2021/09/11 01:28:48;;;;;;;1999.90;999.90;;;;;;;20.06;81.17;100990.25;15828324;28;20051;-59
2021/09/11 01:36:20;;;;;;;1999.90;999.90;;;;;;;20.03;80.93;100994.69;15790479;28;20105;-60
2021/09/11 01:43:53;;;;;;;1999.90;999.90;;;;;;;20.00;81.29;100983.31;15762964;28;20094;-61
2021/09/11 01:51:27;;;;;;;1999.90;999.90;;;;;;;20.00;81.84;100997.47;15776483;28;20040;-61
2021/09/11 01:59:00;;;;;;;1999.90;999.90;;;;;;;20.02;81.08;101001.56;15781965;28;20048;-61
2021/09/11 02:06:33;;;;;;;1999.90;999.90;;;;;;;19.89;81.32;100989.69;15766173;28;20091;-58
2021/09/11 02:14:06;;;;;;;1999.90;999.90;;;;;;;19.74;81.03;100999.25;15788582;28;20044;-60
2021/09/11 02:21:39;;;;;;;1999.90;999.90;;;;;;;19.73;80.81;101002.47;15736802;28;20035;-61
2021/09/11 02:29:12;;;;;;;1999.90;999.90;;;;;;;19.71;81.17;101000.03;15794801;28;20498;-61
2021/09/11 02:36:47;;;;;;;1999.90;999.90;;;;;;;19.66;81.35;100996.75;15776222;28;20063;-60
2021/09/11 02:44:21;;;;;;;1999.90;999.90;;;;;;;19.66;80.79;100991.88;15780833;28;20047;-61
2021/09/11 02:51:53;;;;;;;1999.90;999.90;;;;;;;19.84;81.06;100990.06;15757116;28;20040;-60
2021/09/11 02:59:27;;;;;;;1999.90;999.90;;;;;;;19.80;81.61;100994.88;15787809;28;20040;-61
2021/09/11 03:06:59;;;;;;;1999.90;999.90;;;;;;;19.75;81.80;100992.38;15771309;28;20356;-60
2021/09/11 03:14:33;;;;;;;1999.90;999.90;;;;;;;19.75;81.07;101000.88;15772370;28;20123;-60
2021/09/11 03:22:05;;;;;;;1999.90;999.90;;;;;;;19.63;81.89;101004.00;15765313;28;20055;-61
2021/09/11 03:29:38;;;;;;;1999.90;999.90;;;;;;;19.75;81.44;101005.72;15786212;28;20069;-62
2021/09/11 03:37:12;;;;;;;1999.90;999.90;;;;;;;19.78;81.67;100993.63;15756308;28;20046;-61
2021/09/11 03:44:45;;;;;;;1999.90;999.90;;;;;;;19.77;81.85;101000.50;15757001;28;20046;-60
2021/09/11 03:52:19;;;;;;;1999.90;999.90;;;;;;;19.63;82.43;101011.69;15735965;28;20051;-61
2021/09/11 03:59:52;;;;;;;1999.90;999.90;;;;;;;19.51;83.54;101018.38;15778075;28;20044;-61
2021/09/11 04:07:25;;;;;;;1999.90;999.90;;;;;;;19.70;82.67;101011.75;15786845;28;20098;-60
2021/09/11 04:14:58;;;;;;;1999.90;999.90;;;;;;;19.80;82.54;101009.03;15734254;28;20036;-60
2021/09/11 04:22:30;;;;;;;1999.90;999.90;;;;;;;19.57;83.21;101014.03;15753137;28;20044;-60
2021/09/11 04:30:05;;;;;;;1999.90;999.90;;;;;;;19.92;81.69;101013.59;15775338;28;20047;-60
2021/09/11 04:37:38;;;;;;;1999.90;999.90;;;;;;;19.75;83.08;101015.03;15737282;28;20043;-61
2021/09/11 04:45:12;;;;;;;1999.90;999.90;;;;;;;19.94;82.42;101031.00;15728198;28;20049;-60
2021/09/11 04:52:45;;;;;;;1999.90;999.90;;;;;;;20.00;82.67;101042.78;15750338;28;20044;-61
2021/09/11 05:00:19;;;;;;;1999.90;999.90;;;;;;;19.95;83.06;101049.63;15785553;28;20040;-61
2021/09/11 05:07:54;;;;;;;1999.90;999.90;;;;;;;20.09;83.19;101055.44;15811001;28;20042;-59
2021/09/11 05:15:28;;;;;;;1999.90;999.90;;;;;;;20.13;83.67;101058.31;15759455;28;20051;-60
2021/09/11 05:23:00;;;;;;;1999.90;999.90;;;;;;;20.35;82.52;101062.16;15759120;28;20071;-60
2021/09/11 05:30:34;;;;;;;1999.90;999.90;;;;;;;20.19;83.40;101071.72;15790127;28;20044;-61
2021/09/11 05:38:06;;;;;;;1999.90;999.90;;;;;;;20.22;83.08;101081.47;15779493;28;20176;-60
2021/09/11 05:45:40;;;;;;;1999.90;999.90;;;;;;;20.58;82.72;101076.13;15792592;28;20644;-58
2021/09/11 05:53:12;;;;;;;1999.90;999.90;;;;;;;20.64;82.84;101088.75;15777472;28;20087;-58
2021/09/11 06:00:46;;;;;;;1999.90;999.90;;;;;;;20.77;82.86;101092.09;15788902;28;20033;-62
2021/09/11 06:08:20;;;;;;;1999.90;999.90;;;;;;;20.88;82.96;101096.63;15779243;28;20071;-62
2021/09/11 06:15:54;;;;;;;1999.90;999.90;;;;;;;21.17;82.10;101099.66;15781213;28;20090;-62
2021/09/11 06:23:27;;;;;;;1999.90;999.90;;;;;;;21.36;82.42;101102.19;15737305;28;20493;-60
2021/09/11 06:31:01;;;;;;;1999.90;999.90;;;;;;;21.62;82.17;101109.63;15806434;28;20103;-61
2021/09/11 06:38:33;;;;;;;1999.90;999.90;;;;;;;21.61;81.74;101113.69;15730791;28;20052;-62
2021/09/11 06:46:08;;;;;;;1999.90;999.90;;;;;;;21.61;81.03;101127.91;15772019;28;20046;-62
2021/09/11 06:53:41;;;;;;;1999.90;999.90;;;;;;;21.76;81.50;101109.69;15782475;28;20048;-61
2021/09/11 07:01:15;;;;;;;1999.90;999.90;;;;;;;21.90;80.33;101126.00;15807144;28;20044;-60
2021/09/11 07:08:47;;;;;;;1999.90;999.90;;;;;;;21.88;80.54;101126.38;15805690;28;20044;-60
2021/09/11 07:16:21;;;;;;;1999.90;999.90;;;;;;;21.96;80.87;101132.06;15788368;28;20032;-60
2021/09/11 07:23:53;;;;;;;1999.90;999.90;;;;;;;22.10;80.65;101140.69;15785504;28;20048;-60
2021/09/11 07:31:27;;;;;;;1999.90;999.90;;;;;;;22.37;80.27;101143.97;15801150;28;20051;-61
2021/09/11 07:38:59;;;;;;;1999.90;999.90;;;;;;;22.47;79.40;101151.72;15802608;28;20040;-58
2021/09/11 07:46:32;;;;;;;1999.90;999.90;;;;;;;22.76;79.77;101144.84;15805034;28;20044;-56
2021/09/11 07:54:05;;;;;;;1999.90;999.90;;;;;;;23.05;78.90;101164.78;15802026;28;20412;-55
2021/09/11 08:01:39;;;;;;;1999.90;999.90;;;;;;;22.94;78.26;101164.78;15776888;28;20040;-60
2021/09/11 08:09:12;;;;;;;1999.90;999.90;;;;;;;22.78;80.24;101172.88;15740143;28;20051;-59
2021/09/11 08:16:46;;;;;;;1999.90;999.90;;;;;;;23.64;78.66;101175.66;15739508;28;20040;-60
2021/09/11 08:24:18;;;;;;;1999.90;999.90;;;;;;;23.48;77.67;101174.06;15722151;28;20049;-61
2021/09/11 08:31:52;;;;;;;1999.90;999.90;;;;;;;24.15;76.44;101173.00;15789341;28;20044;-61
2021/09/11 08:39:26;;;;;;;1999.90;999.90;;;;;;;25.28;75.36;101172.59;15801786;28;20071;-59
2021/09/11 08:46:59;;;;;;;1999.90;999.90;;;;;;;24.93;71.37;101182.28;15801529;28;20072;-60
2021/09/11 08:54:31;;;;;;;1999.90;999.90;;;;;;;24.90;71.74;101186.78;15801124;28;20079;-58
2021/09/11 09:02:09;;;;;;;1999.90;999.90;;;;;;;25.30;70.17;101188.09;15799953;28;20390;-61
2021/09/11 09:09:42;;;;;;;1999.90;999.90;;;;;;;25.21;70.10;101192.66;15800909;28;20048;-60
2021/09/11 09:17:15;;;;;;;1999.90;999.90;;;;;;;24.81;70.94;101192.19;15801050;28;20044;-60
2021/09/11 09:24:48;;;;;;;1999.90;999.90;;;;;;;24.73;71.41;101208.53;15766298;28;20044;-59
2021/09/11 09:32:35;;;;;;;1999.90;999.90;;;;;;;24.70;71.78;101208.56;15772201;28;20488;-60
2021/09/11 09:40:08;;;;;;;1999.90;999.90;;;;;;;24.93;70.86;101202.28;15811445;28;20048;-59
2021/09/11 09:47:58;;;;;;;1999.90;999.90;;;;;;;24.60;71.35;101204.56;15793046;28;20051;-60
2021/09/11 09:55:31;;;;;;;1999.90;999.90;;;;;;;24.38;71.54;101206.72;15792411;28;20055;-58
2021/09/11 10:03:05;;;;;;;;;;;;;;;24.88;70.63;101208.41;15792484;28;20051;-61
2021/09/11 10:10:40;;;;;;;1999.90;999.90;;;;;;;24.44;69.77;101201.38;15791783;28;19927;-61
2021/09/11 10:18:42;;;;;;;1999.90;999.90;;;;;;;25.53;67.36;101192.34;15809608;28;20044;-61
2021/09/11 10:26:45;;;;;;;1999.90;999.90;;;;;;;26.13;64.47;101191.63;15809151;28;20048;-62
2021/09/11 10:34:19;;;;;;;1999.90;999.90;;;;;;;25.51;67.32;101178.47;15807203;28;20036;-61
2021/09/11 10:42:04;;;;;;;1999.90;999.90;;;;;;;25.62;67.03;101178.34;15790127;28;20044;-61
2021/09/11 10:49:39;;;;;;;1999.90;999.90;;;;;;;25.98;67.01;101175.91;15807724;28;20508;-61
2021/09/11 10:57:14;;;;;;;1999.90;999.90;;;;;;;26.53;65.49;101174.75;15806782;28;20119;-59
2021/09/11 11:04:59;;;;;;;1999.90;999.90;;;;;;;29.21;57.38;101175.84;15788610;28;20048;-60
2021/09/11 11:12:34;;;;;;;1999.90;999.90;;;;;;;28.17;55.33;101171.75;15806667;28;20048;-60
2021/09/11 11:20:09;;;;;;;1999.90;999.90;;;;;;;28.79;56.85;101166.25;15806818;28;20113;-59
2021/09/11 11:27:42;;;;;;;1999.90;999.90;;;;;;;30.14;51.62;101159.69;15805978;28;20056;-60
2021/09/11 11:35:16;;;;;;;1999.90;999.90;;;;;;;30.34;49.90;101159.47;15787984;28;20044;-58
2021/09/11 11:42:49;;;;;;;1999.90;999.90;;;;;;;31.55;48.66;101153.28;15805170;28;20056;-61
2021/09/11 11:50:26;;;;;;;1999.90;999.90;;;;;;;31.04;47.33;101138.22;15804395;28;20040;-61
2021/09/11 11:58:10;;;;;;;1999.90;999.90;;;;;;;31.41;47.08;101139.41;15803226;28;20497;-61
2021/09/11 12:05:43;;;;;;;1999.90;999.90;;;;;;;31.17;49.29;101130.38;15803424;28;20040;-59
2021/09/11 12:13:16;;;;;;;1999.90;999.90;;;;;;;29.60;52.35;101121.00;15803017;28;20075;-58
2021/09/11 12:20:52;;;;;;;1999.90;999.90;;;;;;;27.89;55.63;101127.28;15802475;28;20040;-59
2021/09/11 12:28:40;;;;;;;1999.90;999.90;;;;;;;27.31;58.23;101109.63;15802501;28;20044;-58
2021/09/11 12:36:29;;;;;;;1999.90;999.90;;;;;;;26.98;60.00;101103.66;15784160;28;20497;-58
2021/09/11 12:44:03;;;;;;;1999.90;999.90;;;;;;;26.69;61.49;101105.44;15787871;28;20047;-58
2021/09/11 12:51:39;;;;;;;1999.90;999.90;;;;;;;26.41;63.23;101101.78;15781065;28;20047;-60
2021/09/11 12:59:13;;;;;;;1999.90;999.90;;;;;;;26.59;62.07;101107.22;15796508;28;20083;-55
2021/09/11 13:06:49;;;;;;;1999.90;999.90;;;;;;;28.16;56.78;101121.38;15786719;28;20064;-57
2021/09/11 13:14:22;;;;;;;1999.90;999.90;;;;;;;34.81;41.76;101132.13;15817896;28;20047;-57
2021/09/11 13:21:56;;;;;;;1999.90;999.90;;;;;;;36.85;37.90;101125.47;15793991;28;20055;-58
2021/09/11 13:29:29;;;;;;;1999.90;999.90;;;;;;;28.10;53.69;101109.59;15792593;28;20052;-60
2021/09/11 13:37:09;;;;;;;1999.90;999.90;;;;;;;26.93;57.56;101098.44;15792468;28;20059;-59
2021/09/11 13:44:41;;;;;;;1999.90;999.90;;;;;;;26.59;59.26;101084.31;15811073;28;20058;-59
2021/09/11 13:52:15;;;;;;;1999.90;999.90;;;;;;;26.35;61.46;101099.81;15809858;28;20051;-61
2021/09/11 13:59:47;;;;;;;1999.90;999.90;;;;;;;26.09;63.06;101110.00;15792146;28;20044;-57
2021/09/11 14:07:22;;;;;;;1999.90;999.90;;;;;;;26.01;64.68;101102.78;15825378;28;20554;-59
2021/09/11 14:14:54;;;;;;;1999.90;999.90;;;;;;;25.87;65.30;101103.78;15804460;28;20063;-57
2021/09/11 14:22:28;;;;;;;;;;;;;;;26.05;65.23;101132.94;15805971;28;20514;-58
2021/09/11 14:30:04;;;;;;;1999.90;999.90;;;;;;;26.03;64.60;101129.69;15804393;28;19924;-58
2021/09/11 14:37:39;;;;;;;1999.90;999.90;;;;;;;26.38;62.88;101131.25;15809196;28;20046;-56
2021/09/11 14:45:12;;;;;;;1999.90;999.90;;;;;;;26.38;61.79;101127.59;15836362;28;20052;-60
2021/09/11 14:52:46;;;;;;;1999.90;999.90;;;;;;;26.00;63.33;101124.84;15803318;28;20036;-61
2021/09/11 15:00:19;;;;;;;1999.90;999.90;;;;;;;25.26;64.70;101110.22;15805323;28;20490;-61
2021/09/11 15:07:53;;;;;;;1999.90;999.90;;;;;;;25.38;64.02;101113.75;15788904;28;20063;-60
2021/09/11 15:15:25;;;;;;;1999.90;999.90;;;;;;;25.46;65.31;101086.72;15789634;28;20394;-58
2021/09/11 15:22:59;;;;;;;1999.90;999.90;;;;;;;25.17;67.62;101084.19;15806611;28;20044;-60
2021/09/11 15:30:31;;;;;;;1999.90;999.90;;;;;;;25.32;68.07;101085.66;15805166;28;20044;-59
2021/09/11 15:38:05;;;;;;;;;;;;;;;25.47;67.93;101072.00;15813322;28;20044;-60
2021/09/11 15:45:38;;;;;;;1999.90;999.90;;;;;;;25.25;68.84;101082.88;15803892;28;19920;-60
2021/09/11 15:53:12;;;;;;;1999.90;999.90;;;;;;;25.12;69.31;101090.38;15831082;28;20043;-60
2021/09/11 16:00:45;;;;;;;1999.90;999.90;;;;;;;24.91;69.27;101094.25;15758932;28;20048;-59
2021/09/11 16:08:20;;;;;;;1999.90;999.90;;;;;;;24.77;70.93;101097.19;15744277;28;20075;-58
2021/09/11 16:15:53;;;;;;;1999.90;999.90;;;;;;;24.56;70.82;101103.09;15779769;28;20414;-58
2021/09/11 16:23:27;;;;;;;1999.90;999.90;;;;;;;24.70;71.15;101083.03;15745520;28;20048;-61
2021/09/11 16:31:03;;;;;;;1999.90;999.90;;;;;;;24.75;70.84;101079.69;15792559;28;20098;-60
2021/09/11 16:38:39;;;;;;;1999.90;999.90;;;;;;;25.04;70.04;101071.69;15773975;28;20110;-60
2021/09/11 16:46:12;;;;;;;1999.90;999.90;;;;;;;24.98;69.24;101068.44;15761341;28;20143;-61
2021/09/11 16:53:47;;;;;;;1999.90;999.90;;;;;;;24.94;69.12;101066.88;15813546;28;20075;-61
2021/09/11 17:01:21;;;;;;;1999.90;999.90;;;;;;;24.69;70.42;101073.63;15772156;28;20127;-61
2021/09/11 17:09:01;;;;;;;1999.90;999.90;;;;;;;24.73;70.49;101077.28;15791831;28;20621;-61
2021/09/11 17:16:40;;;;;;;1999.90;999.90;;;;;;;24.52;71.12;101068.91;15763489;28;20036;-61
2021/09/11 17:24:33;;;;;;;1999.90;999.90;;;;;;;24.32;72.29;101071.50;15773701;28;20048;-60
2021/09/11 17:32:06;;;;;;;1999.90;999.90;;;;;;;23.90;73.74;101075.44;15808060;28;20044;-59
2021/09/11 17:39:44;;;;;;;1999.90;999.90;;;;;;;23.68;74.58;101073.91;15769653;28;20044;-61
2021/09/11 17:47:33;;;;;;;1999.90;999.90;;;;;;;23.52;74.68;101099.97;15766864;28;20044;-61
2021/09/11 17:55:08;;;;;;;1999.90;999.90;;;;;;;23.52;75.39;101108.53;15810641;28;20098;-59
2021/09/11 18:02:41;;;;;;;1999.90;999.90;;;;;;;23.36;75.37;101122.44;15811012;28;20417;-58
2021/09/11 18:10:16;;;;;;;1999.90;999.90;;;;;;;23.33;75.87;101143.97;15791411;28;20051;-59
2021/09/11 18:17:48;;;;;;;1999.90;999.90;;;;;;;23.00;76.75;101139.56;15769279;28;20032;-57
2021/09/11 18:25:22;;;;;;;1999.90;999.90;;;;;;;22.88;76.56;101145.69;15781197;28;20058;-57
2021/09/11 18:32:55;;;;;;;1999.90;999.90;;;;;;;23.00;75.98;101157.44;15754163;28;20087;-58
2021/09/11 18:40:28;;;;;;;;;;;;;;;22.79;76.69;101159.47;15798854;28;20071;-60
2021/09/11 18:48:01;;;;;;;1999.90;999.90;;;;;;;22.70;76.93;101162.69;15774923;28;20366;-60
2021/09/11 18:55:35;;;;;;;1999.90;999.90;;;;;;;22.46;77.50;101153.75;15786996;28;20047;-61
2021/09/11 19:03:07;;;;;;;1999.90;999.90;;;;;;;22.29;77.87;101173.59;15790156;28;20119;-60
2021/09/11 19:10:44;;;;;;;1999.90;999.90;;;;;;;22.33;77.34;101186.63;15794555;28;20524;-62
2021/09/11 19:18:18;;;;;;;1999.90;999.90;;;;;;;22.16;77.64;101178.84;15769389;28;20056;-61
2021/09/11 19:25:53;;;;;;;1999.90;999.90;;;;;;;22.08;77.03;101160.97;15774546;28;20098;-61
2021/09/11 19:33:25;;;;;;;1999.90;999.90;;;;;;;21.89;77.64;101173.47;15752150;28;20847;-61
2021/09/11 19:40:59;;;;;;;1999.90;999.90;;;;;;;21.95;78.07;101184.44;15761664;28;20044;-61
2021/09/11 19:48:31;;;;;;;1999.90;999.90;;;;;;;21.79;78.71;101185.59;15781940;28;20044;-59
2021/09/11 19:56:09;;;;;;;1999.90;999.90;;;;;;;21.94;78.55;101177.94;15741109;28;20054;-60
2021/09/11 20:03:44;;;;;;;1999.90;999.90;;;;;;;22.03;78.59;101189.75;15748673;28;20395;-59
2021/09/11 20:11:19;;;;;;;1999.90;999.90;;;;;;;22.06;78.55;101186.13;15739884;28;20151;-60
2021/09/11 20:18:57;;;;;;;1999.90;999.90;;;;;;;22.01;78.55;101194.22;15746666;28;20139;-61
2021/09/11 20:26:45;;;;;;;1999.90;999.90;;;;;;;22.10;79.13;101186.16;15728812;28;21400;-61
2021/09/11 20:34:20;;;;;;;1999.90;999.90;;;;;;;22.07;78.74;101187.75;15783065;28;20040;-61
2021/09/11 20:41:54;;;;;;;1999.90;999.90;;;;;;;21.96;79.05;101189.72;15782991;28;20044;-61
2021/09/11 20:49:26;;;;;;;1999.90;999.90;;;;;;;22.13;78.64;101203.22;15781965;28;20086;-61
2021/09/11 20:57:00;;;;;;;;;;;;;;;22.17;78.87;101214.59;15743057;28;20072;-61
2021/09/11 21:04:33;;;;;;;1999.90;999.90;;;;;;;22.18;78.63;101221.91;15771360;28;20026;-61
2021/09/11 21:12:08;;;;;;;1999.90;999.90;;;;;;;22.19;79.01;101223.53;15765584;28;20047;-61
2021/09/11 21:19:41;;;;;;;1999.90;999.90;;;;;;;22.18;78.41;101230.41;15760031;28;20049;-61
2021/09/11 21:27:15;;;;;;;1999.90;999.90;;;;;;;22.09;78.81;101227.13;15779054;28;20044;-61
2021/09/11 21:34:47;;;;;;;1999.90;999.90;;;;;;;22.07;78.54;101232.41;15812257;28;20475;-61
2021/09/11 21:42:21;;;;;;;1999.90;999.90;;;;;;;21.99;78.69;101242.06;15768789;28;20040;-61
2021/09/11 21:49:53;;;;;;;1999.90;999.90;;;;;;;21.83;79.44;101234.72;15810411;28;20040;-59
2021/09/11 21:57:27;;;;;;;1999.90;999.90;;;;;;;21.70;79.31;101232.59;15767658;28;20068;-60
2021/09/11 22:05:00;;;;;;;1999.90;999.90;;;;;;;21.56;79.28;101230.47;15738538;28;20509;-60
2021/09/11 22:12:35;;;;;;;1999.90;999.90;;;;;;;21.45;79.62;101241.75;15771812;28;20566;-61
2021/09/11 22:20:09;;;;;;;1999.90;999.90;;;;;;;21.31;79.27;101239.66;15788910;28;20053;-60
2021/09/11 22:27:43;;;;;;;1999.90;999.90;;;;;;;21.18;78.42;101240.34;15779052;28;20798;-60
2021/09/11 22:35:16;;;;;;;1999.90;999.90;;;;;;;20.96;78.77;101242.97;15779525;28;20486;-60
2021/09/11 22:42:49;;;;;;;1999.90;999.90;;;;;;;20.81;79.33;101249.72;15732713;28;20040;-58
2021/09/11 22:50:22;;;;;;;1999.90;999.90;;;;;;;20.61;79.00;101236.94;15784299;28;20106;-59
2021/09/11 22:57:55;;;;;;;1999.90;999.90;;;;;;;20.56;78.57;101240.97;15787207;28;20071;-59
2021/09/11 23:05:28;;;;;;;1999.90;999.90;;;;;;;20.41;78.93;101237.09;15780824;28;20078;-60
2021/09/11 23:13:01;;;;;;;1999.90;999.90;;;;;;;20.27;79.26;101224.81;15779946;28;20071;-59
2021/09/11 23:20:34;;;;;;;1999.90;999.90;;;;;;;20.16;79.31;101233.19;15768106;28;20043;-57
2021/09/11 23:28:07;;;;;;;1999.90;999.90;;;;;;;20.08;78.89;101234.28;15748884;28;20075;-58
2021/09/11 23:35:41;;;;;;;1999.90;999.90;;;;;;;19.94;79.37;101229.25;15760765;28;20090;-57
2021/09/11 23:43:14;;;;;;;1999.90;999.90;;;;;;;19.86;79.84;101224.69;15763405;28;20044;-58
2021/09/11 23:50:47;;;;;;;1999.90;999.90;;;;;;;19.75;79.22;101237.91;15741930;28;20032;-58
2021/09/11 23:58:20;;;;;;;1999.90;999.90;;;;;;;19.81;78.61;101242.84;15760616;28;20052;-58
